Hoegh Transporter — LAKO7 — position and weather

sailwx.info

Track history (hours):
 
Tides and Currents Weather Stations Pressure Air Temp Water Temp Dewpoint Dewpoint Depression Visibility Wind Speed Wind Dir Waves Ship Positions

Hoegh Transporter

Last reported at 2017-Feb-10 23:32 UTC. Time now 2017-Feb-23 13:58 UTC.
Position N 01°14' E 103°25'.
Warning: this ship's position is 12 days out of date.

Length 199 m; draft 9.6 m.

Type: Cargo ship. MMSI: 257712000.

Date/timePositionNaut miles runAvg speedWind from/ knotsBaromVisibWave heightAir tempDewpointWater temp
2017-Feb-10 23:32N 01°14' E 103°25'1515.4
2017-Feb-10 22:33N 01°13' E 103°40'7 6.3
2017-Feb-10 21:28N 01°17' E 103°45'0 0.0
2017-Feb-10 20:31N 01°17' E 103°45'0 0.0
2017-Feb-10 19:31N 01°17' E 103°45'0 0.0
2017-Feb-10 18:31N 01°17' E 103°45'0 0.0
2017-Feb-10 17:31N 01°17' E 103°45'0 0.0
2017-Feb-10 16:31N 01°17' E 103°45'4 3.8
2017-Feb-10 15:33N 01°14' E 103°47'9 9.2
2017-Feb-10 14:33N 01°14' E 103°56'  
2017-Feb-03 11:33N 31°05' E 122°35'1313.4
2017-Feb-03 10:34N 31°06' E 122°20'1414.3
2017-Feb-03 09:33N 31°14' E 122°06'1312.8
2017-Feb-03 08:33N 31°16' E 121°51'9 8.1
2017-Feb-03 07:25N 31°19' E 121°41'0 0.0
2017-Feb-03 06:31N 31°19' E 121°41'0 0.0
2017-Feb-03 05:31N 31°19' E 121°41'0 0.0
2017-Feb-03 04:31N 31°19' E 121°41'0 0.0
2017-Feb-03 03:31N 31°19' E 121°41'0 0.0
2017-Feb-03 02:28N 31°19' E 121°41'  
Track history (hours):
 
Tides and Currents Weather Stations Pressure Air Temp Water Temp Dewpoint Dewpoint Depression Visibility Wind Speed Wind Dir Waves Ship Positions

Hoegh Transporter

Last reported at 2017-Feb-10 23:32 UTC. Time now 2017-Feb-23 13:58 UTC.
Position N 01°14' E 103°25'.
Warning: this ship's position is 12 days out of date.

Length 199 m; draft 9.6 m.

Type: Cargo ship. MMSI: 257712000.

Date/timePositionNaut miles runAvg speedWind from/ knotsBaromVisibWave heightAir tempDewpointWater temp
2017-Feb-10 23:32N 01°14' E 103°25'1515.4
2017-Feb-10 22:33N 01°13' E 103°40'7 6.3
2017-Feb-10 21:28N 01°17' E 103°45'0 0.0
2017-Feb-10 20:31N 01°17' E 103°45'0 0.0
2017-Feb-10 19:31N 01°17' E 103°45'0 0.0
2017-Feb-10 18:31N 01°17' E 103°45'0 0.0
2017-Feb-10 17:31N 01°17' E 103°45'0 0.0
2017-Feb-10 16:31N 01°17' E 103°45'4 3.8
2017-Feb-10 15:33N 01°14' E 103°47'9 9.2
2017-Feb-10 14:33N 01°14' E 103°56'  
2017-Feb-03 11:33N 31°05' E 122°35'1313.4
2017-Feb-03 10:34N 31°06' E 122°20'1414.3
2017-Feb-03 09:33N 31°14' E 122°06'1312.8
2017-Feb-03 08:33N 31°16' E 121°51'9 8.1
2017-Feb-03 07:25N 31°19' E 121°41'0 0.0
2017-Feb-03 06:31N 31°19' E 121°41'0 0.0
2017-Feb-03 05:31N 31°19' E 121°41'0 0.0
2017-Feb-03 04:31N 31°19' E 121°41'0 0.0
2017-Feb-03 03:31N 31°19' E 121°41'0 0.0
2017-Feb-03 02:28N 31°19' E 121°41'  

Dump ship's entire track history